Centennial, WY (82055)

12:11 PM MDT on September 01, 2015 (GMT -0600)
Sheep Mountain East - Wild Horse Ranch | | Change Station
CLOSE
Current Station
Personal Weather Station
Location: Laramie, WY
Elevation: 7700 ft
Nearby Weather Stations

Elev 7700 ft 41.24 °N, 106.00 °W | Updated 1 minute ago

Clear
Clear
74.5 °F
Feels Like 77 °F
N
9.0
Wind Variable Wind from NW
Gusts 11.0 mph

Today
High -- | Low -- °F
--% Chance of Precip.
Yesterday
High -- | Low -- °F
Precip. -- in
6:30 AM 7:37 PM
Waning Gibbous, 87% visible
Pressure 29.89 in
Visibility 10.0 miles
Clouds Few 9000 ft
Heat Index 77 °F
Dew Point 38 °F
Humidity 27%
Rainfall 0.00 in
Snow Depth Not available.
UV 9 out of 12
Pollen 9.80 out of 12
Air Quality Not available.
Flu Activity Not available.
METAR KLAR 011753Z AUTO 29014G20KT 10SM FEW090 24/01 A3021 RMK AO2 PK WND 29031/1742 SLP121 T02440011 10250 20067 58003
Pressure 29.89 in
Visibility 10.0 miles
Clouds Few 9000 ft
Heat Index 77 °F
Dew Point 38 °F
Humidity 27%
Rainfall 0.00 in
Snow Depth Not available.
UV 9 out of 12
Pollen 9.80 out of 12
Air Quality Not available.
Flu Activity Not available.
METAR KLAR 011753Z AUTO 29014G20KT 10SM FEW090 24/01 A3021 RMK AO2 PK WND 29031/1742 SLP121 T02440011 10250 20067 58003

10-Day Weather Forecast

×

Almanac

Astronomy

Sep. 01, 2015 Rise Set
Actual Time
Civil Twilight
Nautical Twilight
Astronomical Twilight
Moon
Length of Visible Light
Length of Day
Tomorrow will be .
, % of the Moon is Illuminated

Today's Extremes

State Highs State Lows

Community

WunderPhotos

Upload Photos

1,851,592 photos uploaded!

WunderBlogs® & News

Nearby

Air Quality

  Air Quality AQ Index Pollutant
Not available.

Snow Depth

Station Depth Elevation

Earthquake Activity

City Distance Mag. Time & Date
Minimum magnitude displayed is 2.5.

Coastal Water Temperatures

Place Temperature

Stations

Nearby Weather Stations

Station Location Temp. Windchill Dew Point Humidity Wind Precip. Elev Updated Type